Accueil
METAR-TAF:

METAR-TAF

Aéroports :

Aéroport de Barcelone-El Prat

Barcelone, Espagne

latitude: 41-17N, longitude: 002-04E, altitude: 4 m

Observation

Le bulletin a été fait il y a 20 minutes, à 22:00 UTC
Vent 4 kt de ouest/nord-ouest
Température 24°C
Humidité 78%
Pression 1020 hPa
Visibilité 10 km ou plus
Quelques nuages à une hauteur de 3500 ft

METAR: LEBL 222200Z 30004KT 9999 FEW035 24/20 Q1020 NOSIG

Heure: 00:20 (22:20 UTC)

Prévision

Le bulletin a été fait il y a 5 heures et 20 minutes, à 17:00 UTC
Prévision valable du 22 à 18 UTC au 23 à 18 UTC
Vent 10 kt de sud
Visibilité 10 km ou plus
Quelques nuages à une hauteur de 3500 ft
Evoluant progressivement
du 22 à 18 UTC au 22 à 21 UTC
Vent 7 kt de nord/nord-ouest
Evoluant progressivement
du 23 à 07 UTC au 23 à 10 UTC
Vent 6 kt de sud/sud-est

TAF: LEBL 221700Z 2218/2318 19010KT 9999 FEW035 TX29/2312Z TN21/2306Z BECMG 2218/2221 33007KT BECMG 2307/2310 16006KT

Observations et prévisions météorologiques de plus de 4000 aéroports (messages METAR et TAF).

Les stations disponibles sont représentées par des disques jaunes et rouges sur la carte.

Passer la souris dessus pour voir le nom de la station.

Cliquer dessus pour voir les observations et prévisions météorologiques.

Pour changer de carte: cliquez sur les boutons verts avec une croix noire pour zoomer, sur le bouton vert avec un tiret pour effectuer un zoom arrière, ou sur les flèches vertes pour les cartes adjacentes.


METAR-TAF: